sensor_id;sensor_type;location;lat;lon;timestamp;temperature;humidity
76102;SHT30;64830;46.910;6.354;2024-03-29T00:01:01;10.70;44.35
76102;SHT30;64830;46.910;6.354;2024-03-29T00:03:27;10.76;44.55
76102;SHT30;64830;46.910;6.354;2024-03-29T00:05:52;10.79;44.61
76102;SHT30;64830;46.910;6.354;2024-03-29T00:08:24;10.85;44.66
76102;SHT30;64830;46.910;6.354;2024-03-29T00:10:52;10.89;45.18
76102;SHT30;64830;46.910;6.354;2024-03-29T00:13:18;10.93;45.44
76102;SHT30;64830;46.910;6.354;2024-03-29T00:15:50;11.01;45.47
76102;SHT30;64830;46.910;6.354;2024-03-29T00:18:15;11.07;45.66
76102;SHT30;64830;46.910;6.354;2024-03-29T00:20:43;11.11;45.92
76102;SHT30;64830;46.910;6.354;2024-03-29T00:23:09;11.12;46.01
76102;SHT30;64830;46.910;6.354;2024-03-29T00:25:37;11.19;46.22
76102;SHT30;64830;46.910;6.354;2024-03-29T00:28:03;11.28;46.23
76102;SHT30;64830;46.910;6.354;2024-03-29T00:30:29;11.35;46.40
76102;SHT30;64830;46.910;6.354;2024-03-29T00:32:54;11.38;46.40
76102;SHT30;64830;46.910;6.354;2024-03-29T00:35:38;11.42;46.70
76102;SHT30;64830;46.910;6.354;2024-03-29T00:38:06;11.45;46.59
76102;SHT30;64830;46.910;6.354;2024-03-29T00:40:31;11.49;47.07
76102;SHT30;64830;46.910;6.354;2024-03-29T00:43:00;11.47;47.25
76102;SHT30;64830;46.910;6.354;2024-03-29T00:45:34;11.51;47.33
76102;SHT30;64830;46.910;6.354;2024-03-29T00:48:18;11.52;47.24
76102;SHT30;64830;46.910;6.354;2024-03-29T00:50:51;11.55;47.44
76102;SHT30;64830;46.910;6.354;2024-03-29T00:53:19;11.59;47.15
76102;SHT30;64830;46.910;6.354;2024-03-29T00:55:45;11.63;47.60
76102;SHT30;64830;46.910;6.354;2024-03-29T00:58:16;11.65;47.57
76102;SHT30;64830;46.910;6.354;2024-03-29T01:00:51;11.67;47.11
76102;SHT30;64830;46.910;6.354;2024-03-29T01:03:16;11.72;47.37
76102;SHT30;64830;46.910;6.354;2024-03-29T01:05:42;11.74;47.38
76102;SHT30;64830;46.910;6.354;2024-03-29T01:08:30;11.77;47.27
76102;SHT30;64830;46.910;6.354;2024-03-29T01:10:59;11.81;47.22
76102;SHT30;64830;46.910;6.354;2024-03-29T01:13:39;11.84;47.39
76102;SHT30;64830;46.910;6.354;2024-03-29T01:16:05;11.84;47.00
76102;SHT30;64830;46.910;6.354;2024-03-29T01:18:30;11.86;47.05
76102;SHT30;64830;46.910;6.354;2024-03-29T01:21:03;11.89;47.05
76102;SHT30;64830;46.910;6.354;2024-03-29T01:23:34;11.90;46.94
76102;SHT30;64830;46.910;6.354;2024-03-29T01:26:02;11.90;47.20
76102;SHT30;64830;46.910;6.354;2024-03-29T01:28:30;11.90;47.16
76102;SHT30;64830;46.910;6.354;2024-03-29T01:30:56;11.89;46.96
76102;SHT30;64830;46.910;6.354;2024-03-29T01:33:24;11.94;47.13
76102;SHT30;64830;46.910;6.354;2024-03-29T01:39:02;11.93;46.89
76102;SHT30;64830;46.910;6.354;2024-03-29T01:41:38;11.94;47.23
76102;SHT30;64830;46.910;6.354;2024-03-29T01:44:03;11.93;47.52
76102;SHT30;64830;46.910;6.354;2024-03-29T01:46:35;11.91;47.52
76102;SHT30;64830;46.910;6.354;2024-03-29T01:49:02;11.90;47.53
76102;SHT30;64830;46.910;6.354;2024-03-29T01:51:28;11.91;47.33
76102;SHT30;64830;46.910;6.354;2024-03-29T01:53:54;11.94;47.07
76102;SHT30;64830;46.910;6.354;2024-03-29T01:56:22;11.97;47.27
76102;SHT30;64830;46.910;6.354;2024-03-29T01:58:49;12.00;47.04
76102;SHT30;64830;46.910;6.354;2024-03-29T02:01:19;12.01;47.18
76102;SHT30;64830;46.910;6.354;2024-03-29T02:03:51;12.07;47.24
76102;SHT30;64830;46.910;6.354;2024-03-29T02:06:20;12.02;47.23
76102;SHT30;64830;46.910;6.354;2024-03-29T02:08:50;12.04;47.04
76102;SHT30;64830;46.910;6.354;2024-03-29T02:11:16;12.08;47.26
76102;SHT30;64830;46.910;6.354;2024-03-29T02:13:46;12.10;47.21
76102;SHT30;64830;46.910;6.354;2024-03-29T02:16:38;12.11;46.95
76102;SHT30;64830;46.910;6.354;2024-03-29T02:19:03;12.10;47.14
76102;SHT30;64830;46.910;6.354;2024-03-29T02:21:36;12.08;47.15
76102;SHT30;64830;46.910;6.354;2024-03-29T02:24:20;12.07;47.42
76102;SHT30;64830;46.910;6.354;2024-03-29T02:26:49;12.10;47.47
76102;SHT30;64830;46.910;6.354;2024-03-29T02:29:14;12.13;47.24
76102;SHT30;64830;46.910;6.354;2024-03-29T02:32:03;12.17;47.44
76102;SHT30;64830;46.910;6.354;2024-03-29T02:34:31;12.20;47.63
76102;SHT30;64830;46.910;6.354;2024-03-29T02:37:03;12.22;47.49
76102;SHT30;64830;46.910;6.354;2024-03-29T02:39:29;12.25;47.34
76102;SHT30;64830;46.910;6.354;2024-03-29T02:42:09;12.32;47.51
76102;SHT30;64830;46.910;6.354;2024-03-29T02:44:37;12.35;47.19
76102;SHT30;64830;46.910;6.354;2024-03-29T02:47:03;12.41;47.39
76102;SHT30;64830;46.910;6.354;2024-03-29T02:49:28;12.45;47.58
76102;SHT30;64830;46.910;6.354;2024-03-29T02:52:06;12.49;47.67
76102;SHT30;64830;46.910;6.354;2024-03-29T02:54:37;12.50;47.61
76102;SHT30;64830;46.910;6.354;2024-03-29T02:57:06;12.56;47.68
76102;SHT30;64830;46.910;6.354;2024-03-29T02:59:41;12.57;47.91
76102;SHT30;64830;46.910;6.354;2024-03-29T03:02:12;12.60;47.90
76102;SHT30;64830;46.910;6.354;2024-03-29T03:04:38;12.64;48.04
76102;SHT30;64830;46.910;6.354;2024-03-29T03:07:03;12.63;48.00
76102;SHT30;64830;46.910;6.354;2024-03-29T03:09:47;12.70;48.05
76102;SHT30;64830;46.910;6.354;2024-03-29T03:12:52;12.77;48.20
76102;SHT30;64830;46.910;6.354;2024-03-29T03:15:20;12.80;48.43
76102;SHT30;64830;46.910;6.354;2024-03-29T03:17:50;12.81;48.42
76102;SHT30;64830;46.910;6.354;2024-03-29T03:20:18;12.87;48.40
76102;SHT30;64830;46.910;6.354;2024-03-29T03:22:47;12.93;48.56
76102;SHT30;64830;46.910;6.354;2024-03-29T03:25:16;12.97;48.78
76102;SHT30;64830;46.910;6.354;2024-03-29T03:27:44;13.03;48.99
76102;SHT30;64830;46.910;6.354;2024-03-29T03:30:10;13.10;49.49
76102;SHT30;64830;46.910;6.354;2024-03-29T03:32:44;13.19;50.03
76102;SHT30;64830;46.910;6.354;2024-03-29T03:35:13;13.19;50.47
76102;SHT30;64830;46.910;6.354;2024-03-29T03:37:42;13.24;50.66
76102;SHT30;64830;46.910;6.354;2024-03-29T03:40:07;13.28;50.91
76102;SHT30;64830;46.910;6.354;2024-03-29T03:45:47;13.28;52.00
76102;SHT30;64830;46.910;6.354;2024-03-29T03:48:13;13.28;52.11
76102;SHT30;64830;46.910;6.354;2024-03-29T03:50:41;13.28;52.18
76102;SHT30;64830;46.910;6.354;2024-03-29T03:53:14;13.29;52.45
76102;SHT30;64830;46.910;6.354;2024-03-29T03:55:40;13.28;52.70
76102;SHT30;64830;46.910;6.354;2024-03-29T03:58:05;13.29;52.65
76102;SHT30;64830;46.910;6.354;2024-03-29T04:00:31;13.34;52.98
76102;SHT30;64830;46.910;6.354;2024-03-29T04:03:02;13.34;53.29
76102;SHT30;64830;46.910;6.354;2024-03-29T04:05:29;13.36;53.32
76102;SHT30;64830;46.910;6.354;2024-03-29T04:07:57;13.38;53.72
76102;SHT30;64830;46.910;6.354;2024-03-29T04:10:25;13.38;53.82
76102;SHT30;64830;46.910;6.354;2024-03-29T04:12:51;13.41;53.93
76102;SHT30;64830;46.910;6.354;2024-03-29T04:15:19;13.39;54.07
76102;SHT30;64830;46.910;6.354;2024-03-29T04:17:44;13.38;54.47
76102;SHT30;64830;46.910;6.354;2024-03-29T04:20:13;13.36;54.63
76102;SHT30;64830;46.910;6.354;2024-03-29T04:22:44;13.38;54.96
76102;SHT30;64830;46.910;6.354;2024-03-29T04:25:13;13.35;54.88
76102;SHT30;64830;46.910;6.354;2024-03-29T04:27:42;13.35;55.18
76102;SHT30;64830;46.910;6.354;2024-03-29T04:30:11;13.32;55.06
76102;SHT30;64830;46.910;6.354;2024-03-29T04:32:39;13.32;55.13
76102;SHT30;64830;46.910;6.354;2024-03-29T04:35:08;13.32;55.26
76102;SHT30;64830;46.910;6.354;2024-03-29T04:37:33;13.32;55.37
76102;SHT30;64830;46.910;6.354;2024-03-29T04:40:02;13.34;55.46
76102;SHT30;64830;46.910;6.354;2024-03-29T04:42:34;13.34;55.35
76102;SHT30;64830;46.910;6.354;2024-03-29T04:45:06;13.35;55.55
76102;SHT30;64830;46.910;6.354;2024-03-29T04:47:31;13.32;55.70
76102;SHT30;64830;46.910;6.354;2024-03-29T04:50:00;13.34;55.42
76102;SHT30;64830;46.910;6.354;2024-03-29T04:52:25;13.32;55.52
76102;SHT30;64830;46.910;6.354;2024-03-29T04:54:57;13.36;55.64
76102;SHT30;64830;46.910;6.354;2024-03-29T04:57:23;13.38;55.64
76102;SHT30;64830;46.910;6.354;2024-03-29T04:59:54;13.36;55.63
76102;SHT30;64830;46.910;6.354;2024-03-29T05:02:20;13.41;55.60
76102;SHT30;64830;46.910;6.354;2024-03-29T05:04:45;13.39;55.60
76102;SHT30;64830;46.910;6.354;2024-03-29T05:07:11;13.39;55.65
76102;SHT30;64830;46.910;6.354;2024-03-29T05:09:36;13.38;55.78
76102;SHT30;64830;46.910;6.354;2024-03-29T05:12:01;13.35;55.72
76102;SHT30;64830;46.910;6.354;2024-03-29T05:14:27;13.38;55.96
76102;SHT30;64830;46.910;6.354;2024-03-29T05:16:53;13.38;56.60
76102;SHT30;64830;46.910;6.354;2024-03-29T05:19:18;13.36;56.50
76102;SHT30;64830;46.910;6.354;2024-03-29T05:21:44;13.35;56.67
76102;SHT30;64830;46.910;6.354;2024-03-29T05:24:09;13.38;56.40
76102;SHT30;64830;46.910;6.354;2024-03-29T05:26:35;13.43;56.64
76102;SHT30;64830;46.910;6.354;2024-03-29T05:29:00;13.46;56.97
76102;SHT30;64830;46.910;6.354;2024-03-29T05:31:26;13.46;57.03
76102;SHT30;64830;46.910;6.354;2024-03-29T05:33:54;13.45;57.45
76102;SHT30;64830;46.910;6.354;2024-03-29T05:36:23;13.48;57.64
76102;SHT30;64830;46.910;6.354;2024-03-29T05:38:48;13.46;57.49
76102;SHT30;64830;46.910;6.354;2024-03-29T05:41:18;13.48;57.80
76102;SHT30;64830;46.910;6.354;2024-03-29T05:43:43;13.46;57.47
76102;SHT30;64830;46.910;6.354;2024-03-29T05:46:20;13.49;57.53
76102;SHT30;64830;46.910;6.354;2024-03-29T05:48:46;13.49;57.63
76102;SHT30;64830;46.910;6.354;2024-03-29T05:51:20;13.48;58.12
76102;SHT30;64830;46.910;6.354;2024-03-29T05:53:46;13.45;58.15
76102;SHT30;64830;46.910;6.354;2024-03-29T05:56:11;13.43;58.07
76102;SHT30;64830;46.910;6.354;2024-03-29T05:58:37;13.41;58.35
76102;SHT30;64830;46.910;6.354;2024-03-29T06:01:06;13.41;58.26
76102;SHT30;64830;46.910;6.354;2024-03-29T06:03:34;13.36;58.36
76102;SHT30;64830;46.910;6.354;2024-03-29T06:06:03;13.36;58.35
76102;SHT30;64830;46.910;6.354;2024-03-29T06:08:31;13.38;58.70
76102;SHT30;64830;46.910;6.354;2024-03-29T06:10:57;13.34;58.50
76102;SHT30;64830;46.910;6.354;2024-03-29T06:13:24;13.36;58.57
76102;SHT30;64830;46.910;6.354;2024-03-29T06:16:08;13.36;58.55
76102;SHT30;64830;46.910;6.354;2024-03-29T06:18:55;13.32;58.64
76102;SHT30;64830;46.910;6.354;2024-03-29T06:21:20;13.35;58.57
76102;SHT30;64830;46.910;6.354;2024-03-29T06:23:46;13.34;58.65
76102;SHT30;64830;46.910;6.354;2024-03-29T06:26:11;13.34;58.73
76102;SHT30;64830;46.910;6.354;2024-03-29T06:28:39;13.35;58.77
76102;SHT30;64830;46.910;6.354;2024-03-29T06:31:23;13.36;58.71
76102;SHT30;64830;46.910;6.354;2024-03-29T06:33:55;13.36;58.68
76102;SHT30;64830;46.910;6.354;2024-03-29T06:36:20;13.38;58.81
76102;SHT30;64830;46.910;6.354;2024-03-29T06:38:46;13.35;59.17
76102;SHT30;64830;46.910;6.354;2024-03-29T06:41:11;13.36;58.86
76102;SHT30;64830;46.910;6.354;2024-03-29T06:43:51;13.36;58.83
76102;SHT30;64830;46.910;6.354;2024-03-29T06:46:17;13.38;58.90
76102;SHT30;64830;46.910;6.354;2024-03-29T06:48:42;13.38;58.84
76102;SHT30;64830;46.910;6.354;2024-03-29T06:51:18;13.41;59.09
76102;SHT30;64830;46.910;6.354;2024-03-29T06:53:46;13.41;58.96
76102;SHT30;64830;46.910;6.354;2024-03-29T06:56:14;13.38;58.80
76102;SHT30;64830;46.910;6.354;2024-03-29T06:58:41;13.45;58.53
76102;SHT30;64830;46.910;6.354;2024-03-29T07:01:15;13.50;58.18
76102;SHT30;64830;46.910;6.354;2024-03-29T07:03:43;13.55;58.53
76102;SHT30;64830;46.910;6.354;2024-03-29T07:06:08;13.60;58.33
76102;SHT30;64830;46.910;6.354;2024-03-29T07:08:34;13.62;58.19
76102;SHT30;64830;46.910;6.354;2024-03-29T07:11:03;13.67;57.73
76102;SHT30;64830;46.910;6.354;2024-03-29T07:13:31;13.71;57.81
76102;SHT30;64830;46.910;6.354;2024-03-29T07:16:00;13.78;57.72
76102;SHT30;64830;46.910;6.354;2024-03-29T07:18:43;13.81;58.08
76102;SHT30;64830;46.910;6.354;2024-03-29T07:21:21;13.83;58.82
76102;SHT30;64830;46.910;6.354;2024-03-29T07:23:56;13.76;59.73
76102;SHT30;64830;46.910;6.354;2024-03-29T07:26:21;13.73;59.42
76102;SHT30;64830;46.910;6.354;2024-03-29T07:28:46;13.73;59.85
76102;SHT30;64830;46.910;6.354;2024-03-29T07:31:12;13.70;60.04
76102;SHT30;64830;46.910;6.354;2024-03-29T07:33:46;13.66;59.85
76102;SHT30;64830;46.910;6.354;2024-03-29T07:36:12;13.63;60.31
76102;SHT30;64830;46.910;6.354;2024-03-29T07:38:41;13.65;59.90
76102;SHT30;64830;46.910;6.354;2024-03-29T07:41:15;13.63;60.87
76102;SHT30;64830;46.910;6.354;2024-03-29T07:43:54;13.58;60.60
76102;SHT30;64830;46.910;6.354;2024-03-29T07:46:22;13.56;61.50
76102;SHT30;64830;46.910;6.354;2024-03-29T07:48:54;13.50;61.10
76102;SHT30;64830;46.910;6.354;2024-03-29T07:51:22;13.48;61.02
76102;SHT30;64830;46.910;6.354;2024-03-29T07:53:48;13.50;60.55
76102;SHT30;64830;46.910;6.354;2024-03-29T07:56:17;13.55;59.84
76102;SHT30;64830;46.910;6.354;2024-03-29T07:58:43;13.60;59.73
76102;SHT30;64830;46.910;6.354;2024-03-29T08:01:23;13.74;58.59
76102;SHT30;64830;46.910;6.354;2024-03-29T08:03:57;13.93;57.97
76102;SHT30;64830;46.910;6.354;2024-03-29T08:06:23;14.07;57.25
76102;SHT30;64830;46.910;6.354;2024-03-29T08:08:51;14.20;57.32
76102;SHT30;64830;46.910;6.354;2024-03-29T08:11:43;14.33;56.71
76102;SHT30;64830;46.910;6.354;2024-03-29T08:14:08;14.45;56.44
76102;SHT30;64830;46.910;6.354;2024-03-29T08:16:37;14.53;55.68
76102;SHT30;64830;46.910;6.354;2024-03-29T08:19:02;14.65;55.65
76102;SHT30;64830;46.910;6.354;2024-03-29T08:21:27;14.76;55.42
76102;SHT30;64830;46.910;6.354;2024-03-29T08:24:02;14.84;55.56
76102;SHT30;64830;46.910;6.354;2024-03-29T08:26:32;14.93;55.32
76102;SHT30;64830;46.910;6.354;2024-03-29T08:28:57;14.98;54.63
76102;SHT30;64830;46.910;6.354;2024-03-29T08:31:23;15.05;54.57
76102;SHT30;64830;46.910;6.354;2024-03-29T08:34:06;15.12;54.55
76102;SHT30;64830;46.910;6.354;2024-03-29T08:36:44;15.18;53.88
76102;SHT30;64830;46.910;6.354;2024-03-29T08:39:10;15.25;53.62
76102;SHT30;64830;46.910;6.354;2024-03-29T08:41:54;15.29;53.61
76102;SHT30;64830;46.910;6.354;2024-03-29T08:44:20;15.36;53.14
76102;SHT30;64830;46.910;6.354;2024-03-29T08:46:48;15.42;52.51
76102;SHT30;64830;46.910;6.354;2024-03-29T08:49:16;15.52;53.23
76102;SHT30;64830;46.910;6.354;2024-03-29T08:51:41;15.57;52.50
76102;SHT30;64830;46.910;6.354;2024-03-29T08:54:10;15.63;52.53
76102;SHT30;64830;46.910;6.354;2024-03-29T08:56:35;15.67;52.69
76102;SHT30;64830;46.910;6.354;2024-03-29T08:59:15;15.73;52.70
76102;SHT30;64830;46.910;6.354;2024-03-29T09:02:16;15.79;52.70
76102;SHT30;64830;46.910;6.354;2024-03-29T09:08:09;15.87;51.47
76102;SHT30;64830;46.910;6.354;2024-03-29T09:10:55;15.90;51.69
76102;SHT30;64830;46.910;6.354;2024-03-29T09:19:06;16.05;50.57
76102;SHT30;64830;46.910;6.354;2024-03-29T09:21:31;16.08;50.82
76102;SHT30;64830;46.910;6.354;2024-03-29T09:24:02;16.09;50.78
76102;SHT30;64830;46.910;6.354;2024-03-29T09:26:31;16.14;50.16
76102;SHT30;64830;46.910;6.354;2024-03-29T09:29:02;16.15;50.41
76102;SHT30;64830;46.910;6.354;2024-03-29T09:31:43;16.17;49.65
76102;SHT30;64830;46.910;6.354;2024-03-29T09:34:17;16.18;50.18
76102;SHT30;64830;46.910;6.354;2024-03-29T09:36:42;16.18;49.25
76102;SHT30;64830;46.910;6.354;2024-03-29T09:39:08;16.22;49.83
76102;SHT30;64830;46.910;6.354;2024-03-29T09:41:34;16.24;49.73
76102;SHT30;64830;46.910;6.354;2024-03-29T09:44:05;16.26;49.67
76102;SHT30;64830;46.910;6.354;2024-03-29T09:46:33;16.26;49.70
76102;SHT30;64830;46.910;6.354;2024-03-29T09:49:01;16.26;49.39
76102;SHT30;64830;46.910;6.354;2024-03-29T09:51:35;16.22;50.54
76102;SHT30;64830;46.910;6.354;2024-03-29T09:54:05;16.22;50.49
76102;SHT30;64830;46.910;6.354;2024-03-29T09:56:33;16.22;50.63
76102;SHT30;64830;46.910;6.354;2024-03-29T09:59:00;16.22;50.79
76102;SHT30;64830;46.910;6.354;2024-03-29T10:01:27;16.24;50.83
76102;SHT30;64830;46.910;6.354;2024-03-29T10:04:03;16.22;50.89
76102;SHT30;64830;46.910;6.354;2024-03-29T10:06:33;16.26;50.75
76102;SHT30;64830;46.910;6.354;2024-03-29T10:09:00;16.28;50.87
76102;SHT30;64830;46.910;6.354;2024-03-29T10:11:25;16.30;50.74
76102;SHT30;64830;46.910;6.354;2024-03-29T10:13:51;16.38;50.57
76102;SHT30;64830;46.910;6.354;2024-03-29T10:16:19;16.42;50.61
76102;SHT30;64830;46.910;6.354;2024-03-29T10:18:49;16.43;50.98
76102;SHT30;64830;46.910;6.354;2024-03-29T10:21:15;16.46;50.92
76102;SHT30;64830;46.910;6.354;2024-03-29T10:23:41;16.46;50.69
76102;SHT30;64830;46.910;6.354;2024-03-29T10:26:08;16.48;50.70
76102;SHT30;64830;46.910;6.354;2024-03-29T10:28:41;16.45;50.46
76102;SHT30;64830;46.910;6.354;2024-03-29T10:31:14;16.46;50.22
76102;SHT30;64830;46.910;6.354;2024-03-29T10:33:42;16.49;50.25
76102;SHT30;64830;46.910;6.354;2024-03-29T10:36:13;16.48;50.80
76102;SHT30;64830;46.910;6.354;2024-03-29T10:38:40;16.48;50.45
76102;SHT30;64830;46.910;6.354;2024-03-29T10:41:06;16.52;50.41
76102;SHT30;64830;46.910;6.354;2024-03-29T10:43:33;16.59;49.85
76102;SHT30;64830;46.910;6.354;2024-03-29T10:46:00;16.60;49.81
76102;SHT30;64830;46.910;6.354;2024-03-29T10:48:31;16.67;49.60
76102;SHT30;64830;46.910;6.354;2024-03-29T10:51:01;16.71;49.59
76102;SHT30;64830;46.910;6.354;2024-03-29T10:53:27;16.76;49.13
76102;SHT30;64830;46.910;6.354;2024-03-29T10:55:59;16.79;48.53
76102;SHT30;64830;46.910;6.354;2024-03-29T10:58:35;16.85;49.05
76102;SHT30;64830;46.910;6.354;2024-03-29T11:01:07;16.98;49.02
76102;SHT30;64830;46.910;6.354;2024-03-29T11:06:06;17.25;47.94
76102;SHT30;64830;46.910;6.354;2024-03-29T11:08:37;17.36;47.87
76102;SHT30;64830;46.910;6.354;2024-03-29T11:11:17;17.47;46.90
76102;SHT30;64830;46.910;6.354;2024-03-29T11:14:49;17.54;45.41
76102;SHT30;64830;46.910;6.354;2024-03-29T11:17:13;17.56;45.51
76102;SHT30;64830;46.910;6.354;2024-03-29T11:20:13;17.60;46.16
76102;SHT30;64830;46.910;6.354;2024-03-29T11:26:07;17.66;44.59
76102;SHT30;64830;46.910;6.354;2024-03-29T11:28:34;17.73;44.51
76102;SHT30;64830;46.910;6.354;2024-03-29T11:31:09;17.77;45.52
76102;SHT30;64830;46.910;6.354;2024-03-29T11:36:24;17.81;43.31
76102;SHT30;64830;46.910;6.354;2024-03-29T11:38:59;17.77;44.18
76102;SHT30;64830;46.910;6.354;2024-03-29T11:41:27;17.74;43.33
76102;SHT30;64830;46.910;6.354;2024-03-29T11:44:04;17.71;43.04
76102;SHT30;64830;46.910;6.354;2024-03-29T11:47:04;17.71;41.87
76102;SHT30;64830;46.910;6.354;2024-03-29T11:53:18;17.70;43.05
76102;SHT30;64830;46.910;6.354;2024-03-29T11:56:29;17.73;43.13
76102;SHT30;64830;46.910;6.354;2024-03-29T11:59:14;17.74;43.06
76102;SHT30;64830;46.910;6.354;2024-03-29T12:26:29;18.42;41.24
76102;SHT30;64830;46.910;6.354;2024-03-29T12:28:56;18.53;41.37
76102;SHT30;64830;46.910;6.354;2024-03-29T12:32:03;18.61;40.79
76102;SHT30;64830;46.910;6.354;2024-03-29T12:35:15;18.67;40.35
76102;SHT30;64830;46.910;6.354;2024-03-29T12:38:00;18.74;39.31
76102;SHT30;64830;46.910;6.354;2024-03-29T12:40:33;18.76;38.34
76102;SHT30;64830;46.910;6.354;2024-03-29T12:43:15;18.74;38.19
76102;SHT30;64830;46.910;6.354;2024-03-29T12:45:44;18.71;38.10
76102;SHT30;64830;46.910;6.354;2024-03-29T12:48:18;18.71;38.52
76102;SHT30;64830;46.910;6.354;2024-03-29T12:50:46;18.77;39.34
76102;SHT30;64830;46.910;6.354;2024-03-29T12:53:14;18.88;38.79
76102;SHT30;64830;46.910;6.354;2024-03-29T12:55:40;18.84;38.49
76102;SHT30;64830;46.910;6.354;2024-03-29T12:58:10;18.91;38.72
76102;SHT30;64830;46.910;6.354;2024-03-29T13:00:37;19.03;39.07
76102;SHT30;64830;46.910;6.354;2024-03-29T13:03:02;19.08;37.80
76102;SHT30;64830;46.910;6.354;2024-03-29T13:05:28;19.14;38.98
76102;SHT30;64830;46.910;6.354;2024-03-29T13:07:59;19.18;37.76
76102;SHT30;64830;46.910;6.354;2024-03-29T13:10:25;19.22;38.43
76102;SHT30;64830;46.910;6.354;2024-03-29T13:12:51;19.23;37.19
76102;SHT30;64830;46.910;6.354;2024-03-29T13:15:24;19.21;38.34
76102;SHT30;64830;46.910;6.354;2024-03-29T13:17:54;19.22;36.93
76102;SHT30;64830;46.910;6.354;2024-03-29T13:20:20;19.18;37.51
76102;SHT30;64830;46.910;6.354;2024-03-29T13:22:47;19.25;38.34
76102;SHT30;64830;46.910;6.354;2024-03-29T13:25:15;19.31;38.06
76102;SHT30;64830;46.910;6.354;2024-03-29T13:27:42;19.32;36.77
76102;SHT30;64830;46.910;6.354;2024-03-29T13:30:10;19.26;37.17
76102;SHT30;64830;46.910;6.354;2024-03-29T13:32:36;19.23;37.24
76102;SHT30;64830;46.910;6.354;2024-03-29T13:35:02;19.28;37.98
76102;SHT30;64830;46.910;6.354;2024-03-29T13:37:31;19.31;38.19
76102;SHT30;64830;46.910;6.354;2024-03-29T13:39:56;19.40;38.16
76102;SHT30;64830;46.910;6.354;2024-03-29T13:42:21;19.42;38.45
76102;SHT30;64830;46.910;6.354;2024-03-29T13:44:51;19.48;38.48
76102;SHT30;64830;46.910;6.354;2024-03-29T13:47:17;19.53;38.81
76102;SHT30;64830;46.910;6.354;2024-03-29T13:49:43;19.59;37.78
76102;SHT30;64830;46.910;6.354;2024-03-29T13:52:09;19.63;37.75
76102;SHT30;64830;46.910;6.354;2024-03-29T13:54:34;19.66;38.01
76102;SHT30;64830;46.910;6.354;2024-03-29T13:57:00;19.70;38.19
76102;SHT30;64830;46.910;6.354;2024-03-29T13:59:30;19.65;36.46
76102;SHT30;64830;46.910;6.354;2024-03-29T14:01:55;19.56;37.57
76102;SHT30;64830;46.910;6.354;2024-03-29T14:04:21;19.59;37.61
76102;SHT30;64830;46.910;6.354;2024-03-29T14:06:47;19.62;37.85
76102;SHT30;64830;46.910;6.354;2024-03-29T14:09:12;19.69;37.74
76102;SHT30;64830;46.910;6.354;2024-03-29T14:11:38;19.78;37.38
76102;SHT30;64830;46.910;6.354;2024-03-29T14:14:03;19.81;37.67
76102;SHT30;64830;46.910;6.354;2024-03-29T14:16:33;19.85;36.63
76102;SHT30;64830;46.910;6.354;2024-03-29T14:18:58;19.84;36.75
76102;SHT30;64830;46.910;6.354;2024-03-29T14:21:23;19.88;37.00
76102;SHT30;64830;46.910;6.354;2024-03-29T14:23:49;19.85;36.69
76102;SHT30;64830;46.910;6.354;2024-03-29T14:26:14;19.84;37.00
76102;SHT30;64830;46.910;6.354;2024-03-29T14:28:40;19.81;36.04
76102;SHT30;64830;46.910;6.354;2024-03-29T14:31:05;19.74;36.62
76102;SHT30;64830;46.910;6.354;2024-03-29T14:33:30;19.69;36.60
76102;SHT30;64830;46.910;6.354;2024-03-29T14:35:56;19.63;36.37
76102;SHT30;64830;46.910;6.354;2024-03-29T14:38:23;19.57;36.58
76102;SHT30;64830;46.910;6.354;2024-03-29T14:40:48;19.53;35.78
76102;SHT30;64830;46.910;6.354;2024-03-29T14:43:14;19.43;36.13
76102;SHT30;64830;46.910;6.354;2024-03-29T14:45:40;19.38;35.97
76102;SHT30;64830;46.910;6.354;2024-03-29T14:48:05;19.32;36.49
76102;SHT30;64830;46.910;6.354;2024-03-29T14:50:31;19.29;36.52
76102;SHT30;64830;46.910;6.354;2024-03-29T14:52:56;19.21;36.68
76102;SHT30;64830;46.910;6.354;2024-03-29T14:55:22;19.18;36.95
76102;SHT30;64830;46.910;6.354;2024-03-29T14:57:47;19.12;36.48
76102;SHT30;64830;46.910;6.354;2024-03-29T15:00:13;19.07;36.24
76102;SHT30;64830;46.910;6.354;2024-03-29T15:02:39;19.03;35.92
76102;SHT30;64830;46.910;6.354;2024-03-29T15:05:05;18.95;35.77
76102;SHT30;64830;46.910;6.354;2024-03-29T15:07:31;18.88;35.61
76102;SHT30;64830;46.910;6.354;2024-03-29T15:09:58;18.80;36.17
76102;SHT30;64830;46.910;6.354;2024-03-29T15:12:23;18.77;36.49
76102;SHT30;64830;46.910;6.354;2024-03-29T15:14:48;18.76;36.31
76102;SHT30;64830;46.910;6.354;2024-03-29T15:17:14;18.70;36.14
76102;SHT30;64830;46.910;6.354;2024-03-29T15:19:39;18.71;36.35
76102;SHT30;64830;46.910;6.354;2024-03-29T15:22:06;18.73;36.34
76102;SHT30;64830;46.910;6.354;2024-03-29T15:24:33;18.70;36.45
76102;SHT30;64830;46.910;6.354;2024-03-29T15:26:58;18.70;36.30
76102;SHT30;64830;46.910;6.354;2024-03-29T15:29:27;18.69;36.47
76102;SHT30;64830;46.910;6.354;2024-03-29T15:31:54;18.67;36.34
76102;SHT30;64830;46.910;6.354;2024-03-29T15:34:19;18.64;36.49
76102;SHT30;64830;46.910;6.354;2024-03-29T15:36:45;18.63;36.51
76102;SHT30;64830;46.910;6.354;2024-03-29T15:39:10;18.64;36.38
76102;SHT30;64830;46.910;6.354;2024-03-29T15:41:40;18.63;36.69
76102;SHT30;64830;46.910;6.354;2024-03-29T15:44:06;18.60;36.96
76102;SHT30;64830;46.910;6.354;2024-03-29T15:46:34;18.57;37.49
76102;SHT30;64830;46.910;6.354;2024-03-29T15:48:59;18.53;36.71
76102;SHT30;64830;46.910;6.354;2024-03-29T15:51:25;18.48;36.54
76102;SHT30;64830;46.910;6.354;2024-03-29T15:53:51;18.45;36.50
76102;SHT30;64830;46.910;6.354;2024-03-29T15:56:18;18.42;36.59
76102;SHT30;64830;46.910;6.354;2024-03-29T15:58:44;18.42;36.20
76102;SHT30;64830;46.910;6.354;2024-03-29T16:01:10;18.41;37.02
76102;SHT30;64830;46.910;6.354;2024-03-29T16:03:35;18.38;36.61
76102;SHT30;64830;46.910;6.354;2024-03-29T16:06:01;18.35;36.46
76102;SHT30;64830;46.910;6.354;2024-03-29T16:08:27;18.32;37.00
76102;SHT30;64830;46.910;6.354;2024-03-29T16:11:02;18.31;37.14
76102;SHT30;64830;46.910;6.354;2024-03-29T16:13:29;18.28;37.18
76102;SHT30;64830;46.910;6.354;2024-03-29T16:15:59;18.22;37.31
76102;SHT30;64830;46.910;6.354;2024-03-29T16:18:26;18.18;37.20
76102;SHT30;64830;46.910;6.354;2024-03-29T16:20:53;18.16;37.30
76102;SHT30;64830;46.910;6.354;2024-03-29T16:23:19;18.14;37.53
76102;SHT30;64830;46.910;6.354;2024-03-29T16:25:44;18.11;37.35
76102;SHT30;64830;46.910;6.354;2024-03-29T16:28:11;18.07;37.49
76102;SHT30;64830;46.910;6.354;2024-03-29T16:30:37;18.02;36.55
76102;SHT30;64830;46.910;6.354;2024-03-29T16:33:03;18.01;37.31
76102;SHT30;64830;46.910;6.354;2024-03-29T16:35:28;17.98;37.33
76102;SHT30;64830;46.910;6.354;2024-03-29T16:37:54;17.97;37.54